sensor_id;sensor_type;location;lat;lon;timestamp;temperature;humidity
54192;DHT22;40101;53.002;6.488;2023-02-12T00:00:28;6.30;99.90
54192;DHT22;40101;53.002;6.488;2023-02-12T00:03:12;6.30;99.90
54192;DHT22;40101;53.002;6.488;2023-02-12T00:05:46;6.30;99.90
54192;DHT22;40101;53.002;6.488;2023-02-12T00:08:29;7.60;99.90
54192;DHT22;40101;53.002;6.488;2023-02-12T00:11:18;7.10;99.90
54192;DHT22;40101;53.002;6.488;2023-02-12T00:14:04;6.70;99.90
54192;DHT22;40101;53.002;6.488;2023-02-12T00:16:33;6.30;99.90
54192;DHT22;40101;53.002;6.488;2023-02-12T00:19:09;6.80;99.90
54192;DHT22;40101;53.002;6.488;2023-02-12T00:21:59;6.70;99.90
54192;DHT22;40101;53.002;6.488;2023-02-12T00:24:45;6.10;99.90
54192;DHT22;40101;53.002;6.488;2023-02-12T00:27:17;7.10;99.90
54192;DHT22;40101;53.002;6.488;2023-02-12T00:29:42;5.70;99.90
54192;DHT22;40101;53.002;6.488;2023-02-12T00:32:24;6.70;99.90
54192;DHT22;40101;53.002;6.488;2023-02-12T00:34:51;6.90;99.90
54192;DHT22;40101;53.002;6.488;2023-02-12T00:48:44;6.20;99.90
54192;DHT22;40101;53.002;6.488;2023-02-12T00:51:27;6.10;99.90
54192;DHT22;40101;53.002;6.488;2023-02-12T00:54:30;6.10;99.90
54192;DHT22;40101;53.002;6.488;2023-02-12T00:57:32;5.80;99.90
54192;DHT22;40101;53.002;6.488;2023-02-12T01:00:06;6.10;99.90
54192;DHT22;40101;53.002;6.488;2023-02-12T01:03:01;6.10;99.90
54192;DHT22;40101;53.002;6.488;2023-02-12T01:05:47;5.30;99.90
54192;DHT22;40101;53.002;6.488;2023-02-12T01:08:16;5.90;99.90
54192;DHT22;40101;53.002;6.488;2023-02-12T01:11:10;6.60;99.90
54192;DHT22;40101;53.002;6.488;2023-02-12T02:07:20;6.00;99.90
54192;DHT22;40101;53.002;6.488;2023-02-12T02:10:01;6.00;99.90
54192;DHT22;40101;53.002;6.488;2023-02-12T02:12:32;5.90;99.90
54192;DHT22;40101;53.002;6.488;2023-02-12T02:15:21;6.70;99.90
54192;DHT22;40101;53.002;6.488;2023-02-12T02:38:49;5.90;99.90
54192;DHT22;40101;53.002;6.488;2023-02-12T02:43:54;5.90;99.90
54192;DHT22;40101;53.002;6.488;2023-02-12T02:48:52;6.60;99.90
54192;DHT22;40101;53.002;6.488;2023-02-12T02:51:25;5.80;99.90
54192;DHT22;40101;53.002;6.488;2023-02-12T02:53:57;5.90;99.90
54192;DHT22;40101;53.002;6.488;2023-02-12T02:56:38;6.80;99.90
54192;DHT22;40101;53.002;6.488;2023-02-12T02:59:17;5.50;99.90
54192;DHT22;40101;53.002;6.488;2023-02-12T03:02:28;5.30;99.90
54192;DHT22;40101;53.002;6.488;2023-02-12T03:04:58;5.90;99.90
54192;DHT22;40101;53.002;6.488;2023-02-12T03:07:36;5.90;99.90
54192;DHT22;40101;53.002;6.488;2023-02-12T03:10:22;5.90;99.90
54192;DHT22;40101;53.002;6.488;2023-02-12T03:13:08;5.90;99.90
54192;DHT22;40101;53.002;6.488;2023-02-12T03:15:47;5.90;99.90
54192;DHT22;40101;53.002;6.488;2023-02-12T03:18:44;5.00;99.90
54192;DHT22;40101;53.002;6.488;2023-02-12T03:21:28;5.90;99.90
54192;DHT22;40101;53.002;6.488;2023-02-12T03:26:42;5.80;99.90
54192;DHT22;40101;53.002;6.488;2023-02-12T03:29:12;6.90;99.90
54192;DHT22;40101;53.002;6.488;2023-02-12T03:37:15;5.90;99.90
54192;DHT22;40101;53.002;6.488;2023-02-12T03:42:32;5.80;99.90
54192;DHT22;40101;53.002;6.488;2023-02-12T03:45:32;5.80;99.90
54192;DHT22;40101;53.002;6.488;2023-02-12T03:50:52;6.10;99.90
54192;DHT22;40101;53.002;6.488;2023-02-12T03:53:28;6.60;99.90
54192;DHT22;40101;53.002;6.488;2023-02-12T03:56:28;5.80;99.90
54192;DHT22;40101;53.002;6.488;2023-02-12T03:59:24;5.80;99.90
54192;DHT22;40101;53.002;6.488;2023-02-12T04:02:04;5.80;99.90
54192;DHT22;40101;53.002;6.488;2023-02-12T04:04:44;5.80;99.90
54192;DHT22;40101;53.002;6.488;2023-02-12T04:07:11;5.80;99.90
54192;DHT22;40101;53.002;6.488;2023-02-12T04:09:37;6.80;99.90
54192;DHT22;40101;53.002;6.488;2023-02-12T04:15:22;5.70;99.90
54192;DHT22;40101;53.002;6.488;2023-02-12T04:18:21;5.80;99.90
54192;DHT22;40101;53.002;6.488;2023-02-12T04:29:54;6.00;99.90
54192;DHT22;40101;53.002;6.488;2023-02-12T04:32:45;6.10;99.90
54192;DHT22;40101;53.002;6.488;2023-02-12T04:38:40;5.70;99.90
54192;DHT22;40101;53.002;6.488;2023-02-12T04:40:57;6.00;99.90
54192;DHT22;40101;53.002;6.488;2023-02-12T04:43:33;5.70;99.90
54192;DHT22;40101;53.002;6.488;2023-02-12T04:46:05;5.70;99.90
54192;DHT22;40101;53.002;6.488;2023-02-12T04:48:36;6.40;99.90
54192;DHT22;40101;53.002;6.488;2023-02-12T04:51:12;5.50;99.90
54192;DHT22;40101;53.002;6.488;2023-02-12T04:53:46;6.30;99.90
54192;DHT22;40101;53.002;6.488;2023-02-12T04:56:12;5.70;99.90
54192;DHT22;40101;53.002;6.488;2023-02-12T04:58:42;5.70;99.90
54192;DHT22;40101;53.002;6.488;2023-02-12T05:01:12;5.70;99.90
54192;DHT22;40101;53.002;6.488;2023-02-12T05:03:46;5.90;99.90
54192;DHT22;40101;53.002;6.488;2023-02-12T05:06:25;5.60;99.90
54192;DHT22;40101;53.002;6.488;2023-02-12T05:09:07;5.60;99.90
54192;DHT22;40101;53.002;6.488;2023-02-12T05:11:37;4.90;99.90
54192;DHT22;40101;53.002;6.488;2023-02-12T05:14:11;5.70;99.90
54192;DHT22;40101;53.002;6.488;2023-02-12T05:16:57;5.70;99.90
54192;DHT22;40101;53.002;6.488;2023-02-12T05:19:44;5.60;99.90
54192;DHT22;40101;53.002;6.488;2023-02-12T05:22:33;5.70;99.90
54192;DHT22;40101;53.002;6.488;2023-02-12T05:28:02;6.30;99.90
54192;DHT22;40101;53.002;6.488;2023-02-12T05:30:40;5.80;99.90
54192;DHT22;40101;53.002;6.488;2023-02-12T05:33:20;6.50;99.90
54192;DHT22;40101;53.002;6.488;2023-02-12T05:35:52;5.30;99.90
54192;DHT22;40101;53.002;6.488;2023-02-12T05:38:20;5.60;99.90
54192;DHT22;40101;53.002;6.488;2023-02-12T05:40:52;5.60;99.90
54192;DHT22;40101;53.002;6.488;2023-02-12T05:43:30;6.20;99.90
54192;DHT22;40101;53.002;6.488;2023-02-12T05:46:00;6.20;99.90
54192;DHT22;40101;53.002;6.488;2023-02-12T05:52:23;5.70;99.90
54192;DHT22;40101;53.002;6.488;2023-02-12T06:02:14;5.50;99.90
54192;DHT22;40101;53.002;6.488;2023-02-12T06:04:43;6.20;99.90
54192;DHT22;40101;53.002;6.488;2023-02-12T06:07:09;5.50;99.90
54192;DHT22;40101;53.002;6.488;2023-02-12T06:20:01;5.50;99.90
54192;DHT22;40101;53.002;6.488;2023-02-12T06:22:34;5.50;99.90
54192;DHT22;40101;53.002;6.488;2023-02-12T06:25:09;5.50;99.90
54192;DHT22;40101;53.002;6.488;2023-02-12T06:33:53;6.20;99.90
54192;DHT22;40101;53.002;6.488;2023-02-12T06:36:20;5.50;99.90
54192;DHT22;40101;53.002;6.488;2023-02-12T06:38:51;5.60;99.90
54192;DHT22;40101;53.002;6.488;2023-02-12T06:41:31;4.10;99.90
54192;DHT22;40101;53.002;6.488;2023-02-12T06:44:00;5.50;99.90
54192;DHT22;40101;53.002;6.488;2023-02-12T06:46:30;5.50;99.90
54192;DHT22;40101;53.002;6.488;2023-02-12T06:48:57;5.50;99.90
54192;DHT22;40101;53.002;6.488;2023-02-12T06:51:42;5.50;99.90
54192;DHT22;40101;53.002;6.488;2023-02-12T06:54:24;5.50;99.90
54192;DHT22;40101;53.002;6.488;2023-02-12T06:56:53;5.90;99.90
54192;DHT22;40101;53.002;6.488;2023-02-12T06:59:26;5.90;99.90
54192;DHT22;40101;53.002;6.488;2023-02-12T07:01:55;5.50;99.90
54192;DHT22;40101;53.002;6.488;2023-02-12T07:04:21;5.40;99.90
54192;DHT22;40101;53.002;6.488;2023-02-12T07:06:58;6.20;99.90
54192;DHT22;40101;53.002;6.488;2023-02-12T07:09:58;6.10;99.90
54192;DHT22;40101;53.002;6.488;2023-02-12T07:13:01;5.50;99.90
54192;DHT22;40101;53.002;6.488;2023-02-12T07:29:51;5.60;99.90
54192;DHT22;40101;53.002;6.488;2023-02-12T07:32:57;5.70;99.90
54192;DHT22;40101;53.002;6.488;2023-02-12T07:46:10;5.70;99.90
54192;DHT22;40101;53.002;6.488;2023-02-12T08:02:51;5.60;99.90
54192;DHT22;40101;53.002;6.488;2023-02-12T08:05:55;5.80;99.90
54192;DHT22;40101;53.002;6.488;2023-02-12T08:09:15;5.80;99.90
54192;DHT22;40101;53.002;6.488;2023-02-12T08:22:51;6.00;99.90
54192;DHT22;40101;53.002;6.488;2023-02-12T08:25:39;6.00;99.90
54192;DHT22;40101;53.002;6.488;2023-02-12T08:28:06;6.10;99.90
54192;DHT22;40101;53.002;6.488;2023-02-12T08:30:44;6.10;99.90
54192;DHT22;40101;53.002;6.488;2023-02-12T08:33:14;6.60;99.90
54192;DHT22;40101;53.002;6.488;2023-02-12T08:35:55;5.90;99.90
54192;DHT22;40101;53.002;6.488;2023-02-12T08:38:27;7.20;99.90
54192;DHT22;40101;53.002;6.488;2023-02-12T08:41:03;6.60;99.90
54192;DHT22;40101;53.002;6.488;2023-02-12T08:43:36;6.30;99.90
54192;DHT22;40101;53.002;6.488;2023-02-12T08:46:07;6.60;99.90
54192;DHT22;40101;53.002;6.488;2023-02-12T08:48:39;6.80;99.90
54192;DHT22;40101;53.002;6.488;2023-02-12T08:51:16;6.40;99.90
54192;DHT22;40101;53.002;6.488;2023-02-12T08:53:57;6.10;99.90
54192;DHT22;40101;53.002;6.488;2023-02-12T08:56:29;6.50;99.90
54192;DHT22;40101;53.002;6.488;2023-02-12T08:59:11;6.60;99.90
54192;DHT22;40101;53.002;6.488;2023-02-12T09:01:45;6.60;99.90
54192;DHT22;40101;53.002;6.488;2023-02-12T09:04:20;6.70;99.90
54192;DHT22;40101;53.002;6.488;2023-02-12T09:06:59;6.70;99.90
54192;DHT22;40101;53.002;6.488;2023-02-12T09:09:30;6.70;99.90
54192;DHT22;40101;53.002;6.488;2023-02-12T09:12:02;6.90;99.90
54192;DHT22;40101;53.002;6.488;2023-02-12T09:14:32;6.90;99.90
54192;DHT22;40101;53.002;6.488;2023-02-12T09:17:13;6.90;99.90
54192;DHT22;40101;53.002;6.488;2023-02-12T09:19:56;7.00;99.90
54192;DHT22;40101;53.002;6.488;2023-02-12T09:22:23;7.10;99.90
54192;DHT22;40101;53.002;6.488;2023-02-12T09:25:00;6.60;99.90
54192;DHT22;40101;53.002;6.488;2023-02-12T09:27:27;7.60;99.90
54192;DHT22;40101;53.002;6.488;2023-02-12T09:29:56;8.30;99.90
54192;DHT22;40101;53.002;6.488;2023-02-12T09:32:23;7.40;99.90
54192;DHT22;40101;53.002;6.488;2023-02-12T09:34:53;7.50;99.90
54192;DHT22;40101;53.002;6.488;2023-02-12T09:37:27;7.30;99.90
54192;DHT22;40101;53.002;6.488;2023-02-12T09:40:09;7.50;99.90
54192;DHT22;40101;53.002;6.488;2023-02-12T09:43:01;7.40;99.90
54192;DHT22;40101;53.002;6.488;2023-02-12T09:45:38;7.50;99.90
54192;DHT22;40101;53.002;6.488;2023-02-12T09:48:36;7.50;99.90
54192;DHT22;40101;53.002;6.488;2023-02-12T09:51:15;7.50;99.90
54192;DHT22;40101;53.002;6.488;2023-02-12T09:53:45;7.90;99.90
54192;DHT22;40101;53.002;6.488;2023-02-12T10:31:48;8.50;99.90
54192;DHT22;40101;53.002;6.488;2023-02-12T10:35:20;8.30;99.90
54192;DHT22;40101;53.002;6.488;2023-02-12T10:41:20;8.70;99.90
54192;DHT22;40101;53.002;6.488;2023-02-12T10:44:13;9.20;99.90
54192;DHT22;40101;53.002;6.488;2023-02-12T10:53:23;8.90;99.90
54192;DHT22;40101;53.002;6.488;2023-02-12T10:56:52;8.70;99.90
54192;DHT22;40101;53.002;6.488;2023-02-12T11:10:38;9.70;99.90
54192;DHT22;40101;53.002;6.488;2023-02-12T11:16:59;10.10;99.90
54192;DHT22;40101;53.002;6.488;2023-02-12T11:32:43;10.90;99.90
54192;DHT22;40101;53.002;6.488;2023-02-12T11:42:36;11.00;99.90
54192;DHT22;40101;53.002;6.488;2023-02-12T11:49:00;11.20;99.90
54192;DHT22;40101;53.002;6.488;2023-02-12T11:52:59;12.00;99.90
54192;DHT22;40101;53.002;6.488;2023-02-12T11:59:08;11.20;99.90
54192;DHT22;40101;53.002;6.488;2023-02-12T12:01:42;11.00;99.90
54192;DHT22;40101;53.002;6.488;2023-02-12T12:04:44;11.40;99.90
54192;DHT22;40101;53.002;6.488;2023-02-12T12:08:08;10.90;99.90
54192;DHT22;40101;53.002;6.488;2023-02-12T12:14:04;10.90;99.90
54192;DHT22;40101;53.002;6.488;2023-02-12T12:16:37;11.10;99.90
54192;DHT22;40101;53.002;6.488;2023-02-12T12:19:33;10.50;99.90
54192;DHT22;40101;53.002;6.488;2023-02-12T12:32:32;10.60;99.90
54192;DHT22;40101;53.002;6.488;2023-02-12T13:05:05;10.30;99.90
54192;DHT22;40101;53.002;6.488;2023-02-12T13:26:18;10.70;99.90
54192;DHT22;40101;53.002;6.488;2023-02-12T13:29:15;10.00;99.90
54192;DHT22;40101;53.002;6.488;2023-02-12T13:35:51;10.20;99.90
54192;DHT22;40101;53.002;6.488;2023-02-12T13:41:34;10.70;99.90
54192;DHT22;40101;53.002;6.488;2023-02-12T13:50:04;10.10;99.90
54192;DHT22;40101;53.002;6.488;2023-02-12T13:52:44;10.00;99.90
54192;DHT22;40101;53.002;6.488;2023-02-12T13:55:36;10.00;99.90
54192;DHT22;40101;53.002;6.488;2023-02-12T14:00:58;10.30;99.90
54192;DHT22;40101;53.002;6.488;2023-02-12T15:25:27;8.70;99.90
54192;DHT22;40101;53.002;6.488;2023-02-12T15:28:23;9.20;99.90
54192;DHT22;40101;53.002;6.488;2023-02-12T15:31:39;9.10;99.90
54192;DHT22;40101;53.002;6.488;2023-02-12T15:34:50;9.20;99.90
54192;DHT22;40101;53.002;6.488;2023-02-12T15:41:49;9.20;99.90
54192;DHT22;40101;53.002;6.488;2023-02-12T15:47:36;8.20;99.90
54192;DHT22;40101;53.002;6.488;2023-02-12T15:50:35;9.10;99.90
54192;DHT22;40101;53.002;6.488;2023-02-12T15:53:39;9.60;99.90
54192;DHT22;40101;53.002;6.488;2023-02-12T15:56:18;9.80;99.90
54192;DHT22;40101;53.002;6.488;2023-02-12T15:58:56;9.00;99.90
54192;DHT22;40101;53.002;6.488;2023-02-12T16:04:14;9.00;99.90
54192;DHT22;40101;53.002;6.488;2023-02-12T16:06:44;8.90;99.90
54192;DHT22;40101;53.002;6.488;2023-02-12T16:09:14;9.80;99.90
54192;DHT22;40101;53.002;6.488;2023-02-12T16:11:43;9.80;99.90
54192;DHT22;40101;53.002;6.488;2023-02-12T16:14:40;8.90;99.90
54192;DHT22;40101;53.002;6.488;2023-02-12T16:17:28;8.90;99.90
54192;DHT22;40101;53.002;6.488;2023-02-12T16:22:42;8.80;99.90
54192;DHT22;40101;53.002;6.488;2023-02-12T16:25:27;8.80;99.90
54192;DHT22;40101;53.002;6.488;2023-02-12T16:30:37;8.70;99.90
54192;DHT22;40101;53.002;6.488;2023-02-12T16:46:25;8.70;99.90
54192;DHT22;40101;53.002;6.488;2023-02-12T16:48:53;8.60;99.90
54192;DHT22;40101;53.002;6.488;2023-02-12T16:51:32;8.60;99.90
54192;DHT22;40101;53.002;6.488;2023-02-12T16:54:04;8.60;99.90
54192;DHT22;40101;53.002;6.488;2023-02-12T16:56:48;8.00;99.90
54192;DHT22;40101;53.002;6.488;2023-02-12T16:59:14;9.10;99.90
54192;DHT22;40101;53.002;6.488;2023-02-12T17:01:39;8.60;99.90
54192;DHT22;40101;53.002;6.488;2023-02-12T17:04:13;8.50;99.90
54192;DHT22;40101;53.002;6.488;2023-02-12T17:06:40;8.60;99.90
54192;DHT22;40101;53.002;6.488;2023-02-12T17:09:11;9.00;99.90
54192;DHT22;40101;53.002;6.488;2023-02-12T17:11:37;9.20;99.90
54192;DHT22;40101;53.002;6.488;2023-02-12T17:14:03;8.50;99.90
54192;DHT22;40101;53.002;6.488;2023-02-12T17:16:28;9.40;99.90
54192;DHT22;40101;53.002;6.488;2023-02-12T17:19:02;8.80;99.90
54192;DHT22;40101;53.002;6.488;2023-02-12T17:21:40;8.60;99.90
54192;DHT22;40101;53.002;6.488;2023-02-12T17:26:40;8.50;99.90
54192;DHT22;40101;53.002;6.488;2023-02-12T17:29:07;10.00;99.90
54192;DHT22;40101;53.002;6.488;2023-02-12T17:31:33;9.10;99.90
54192;DHT22;40101;53.002;6.488;2023-02-12T17:34:00;8.70;99.90
54192;DHT22;40101;53.002;6.488;2023-02-12T17:36:28;7.90;99.90
54192;DHT22;40101;53.002;6.488;2023-02-12T17:38:54;8.40;99.90
54192;DHT22;40101;53.002;6.488;2023-02-12T17:41:19;9.40;99.90
54192;DHT22;40101;53.002;6.488;2023-02-12T17:43:45;8.60;99.90
54192;DHT22;40101;53.002;6.488;2023-02-12T17:46:19;8.40;99.90
54192;DHT22;40101;53.002;6.488;2023-02-12T17:48:45;8.40;99.90
54192;DHT22;40101;53.002;6.488;2023-02-12T17:51:14;8.80;99.90
54192;DHT22;40101;53.002;6.488;2023-02-12T17:53:40;8.90;99.90
54192;DHT22;40101;53.002;6.488;2023-02-12T17:56:15;8.60;99.90
54192;DHT22;40101;53.002;6.488;2023-02-12T17:58:42;8.30;99.90
54192;DHT22;40101;53.002;6.488;2023-02-12T18:01:10;8.30;99.90
54192;DHT22;40101;53.002;6.488;2023-02-12T18:03:36;9.50;99.90
54192;DHT22;40101;53.002;6.488;2023-02-12T18:06:03;8.30;99.90
54192;DHT22;40101;53.002;6.488;2023-02-12T18:08:30;8.20;99.90
54192;DHT22;40101;53.002;6.488;2023-02-12T18:10:56;9.30;99.90
54192;DHT22;40101;53.002;6.488;2023-02-12T18:13:24;8.20;99.90
54192;DHT22;40101;53.002;6.488;2023-02-12T18:15:53;8.80;99.90
54192;DHT22;40101;53.002;6.488;2023-02-12T18:18:19;8.60;99.90
54192;DHT22;40101;53.002;6.488;2023-02-12T18:20:45;8.10;99.90
54192;DHT22;40101;53.002;6.488;2023-02-12T18:23:11;8.10;99.90
54192;DHT22;40101;53.002;6.488;2023-02-12T18:25:43;8.10;99.90
54192;DHT22;40101;53.002;6.488;2023-02-12T18:28:12;7.90;99.90
54192;DHT22;40101;53.002;6.488;2023-02-12T18:30:38;8.60;99.90
54192;DHT22;40101;53.002;6.488;2023-02-12T18:33:07;8.10;99.90
54192;DHT22;40101;53.002;6.488;2023-02-12T18:35:34;9.10;99.90
54192;DHT22;40101;53.002;6.488;2023-02-12T18:38:47;8.10;99.90
54192;DHT22;40101;53.002;6.488;2023-02-12T18:41:25;7.60;99.90
54192;DHT22;40101;53.002;6.488;2023-02-12T18:47:40;8.00;99.90
54192;DHT22;40101;53.002;6.488;2023-02-12T18:58:54;8.00;99.90
54192;DHT22;40101;53.002;6.488;2023-02-12T19:06:01;7.90;99.90
54192;DHT22;40101;53.002;6.488;2023-02-12T19:08:37;8.20;99.90
54192;DHT22;40101;53.002;6.488;2023-02-12T19:29:00;8.40;99.90
54192;DHT22;40101;53.002;6.488;2023-02-12T19:31:43;7.80;99.90
54192;DHT22;40101;53.002;6.488;2023-02-12T19:37:43;6.90;99.90
54192;DHT22;40101;53.002;6.488;2023-02-12T19:50:52;7.80;99.90
54192;DHT22;40101;53.002;6.488;2023-02-12T19:54:14;8.00;99.90
54192;DHT22;40101;53.002;6.488;2023-02-12T19:56:40;7.70;99.90
54192;DHT22;40101;53.002;6.488;2023-02-12T19:59:30;7.80;99.90
54192;DHT22;40101;53.002;6.488;2023-02-12T20:06:05;7.00;99.90
54192;DHT22;40101;53.002;6.488;2023-02-12T20:09:02;7.60;99.90
54192;DHT22;40101;53.002;6.488;2023-02-12T20:11:57;7.60;99.90
54192;DHT22;40101;53.002;6.488;2023-02-12T20:14:32;7.90;99.90
54192;DHT22;40101;53.002;6.488;2023-02-12T20:16:57;8.50;99.90
54192;DHT22;40101;53.002;6.488;2023-02-12T20:19:52;7.30;99.90
54192;DHT22;40101;53.002;6.488;2023-02-12T20:23:09;8.30;99.90
54192;DHT22;40101;53.002;6.488;2023-02-12T20:25:50;8.10;99.90
54192;DHT22;40101;53.002;6.488;2023-02-12T20:28:20;7.60;99.90
54192;DHT22;40101;53.002;6.488;2023-02-12T20:30:46;8.00;99.90
54192;DHT22;40101;53.002;6.488;2023-02-12T20:33:15;8.30;99.90
54192;DHT22;40101;53.002;6.488;2023-02-12T20:36:28;7.60;99.90
54192;DHT22;40101;53.002;6.488;2023-02-12T20:41:52;8.60;99.90
54192;DHT22;40101;53.002;6.488;2023-02-12T20:44:48;8.00;99.90
54192;DHT22;40101;53.002;6.488;2023-02-12T20:47:22;8.40;99.90
54192;DHT22;40101;53.002;6.488;2023-02-12T20:50:01;8.40;99.90
54192;DHT22;40101;53.002;6.488;2023-02-12T20:52:27;8.00;99.90
54192;DHT22;40101;53.002;6.488;2023-02-12T20:55:04;8.10;99.90
54192;DHT22;40101;53.002;6.488;2023-02-12T20:58:05;7.50;99.90
54192;DHT22;40101;53.002;6.488;2023-02-12T21:00:43;7.60;99.90
54192;DHT22;40101;53.002;6.488;2023-02-12T21:06:43;7.40;99.90
54192;DHT22;40101;53.002;6.488;2023-02-12T21:09:12;8.00;99.90
54192;DHT22;40101;53.002;6.488;2023-02-12T21:11:42;7.30;99.90
54192;DHT22;40101;53.002;6.488;2023-02-12T21:14:12;7.50;99.90
54192;DHT22;40101;53.002;6.488;2023-02-12T21:16:39;6.90;99.90
54192;DHT22;40101;53.002;6.488;2023-02-12T21:19:09;8.10;99.90
54192;DHT22;40101;53.002;6.488;2023-02-12T21:21:37;9.00;99.90
54192;DHT22;40101;53.002;6.488;2023-02-12T21:24:12;7.60;99.90
54192;DHT22;40101;53.002;6.488;2023-02-12T21:26:39;8.00;99.90
54192;DHT22;40101;53.002;6.488;2023-02-12T21:29:05;8.20;99.90
54192;DHT22;40101;53.002;6.488;2023-02-12T21:31:36;8.30;99.90
54192;DHT22;40101;53.002;6.488;2023-02-12T21:34:06;7.60;99.90
54192;DHT22;40101;53.002;6.488;2023-02-12T21:36:37;7.60;99.90
54192;DHT22;40101;53.002;6.488;2023-02-12T21:39:08;7.60;99.90
54192;DHT22;40101;53.002;6.488;2023-02-12T21:41:37;7.40;99.90
54192;DHT22;40101;53.002;6.488;2023-02-12T21:44:14;8.40;99.90
54192;DHT22;40101;53.002;6.488;2023-02-12T21:46:42;7.80;99.90
54192;DHT22;40101;53.002;6.488;2023-02-12T21:49:09;7.50;99.90
54192;DHT22;40101;53.002;6.488;2023-02-12T21:51:48;8.00;99.90
54192;DHT22;40101;53.002;6.488;2023-02-12T21:54:17;8.00;99.90
54192;DHT22;40101;53.002;6.488;2023-02-12T21:56:45;7.50;99.90
54192;DHT22;40101;53.002;6.488;2023-02-12T21:59:11;7.60;99.90
54192;DHT22;40101;53.002;6.488;2023-02-12T22:01:44;7.60;99.90
54192;DHT22;40101;53.002;6.488;2023-02-12T22:04:10;8.70;99.90
54192;DHT22;40101;53.002;6.488;2023-02-12T22:06:38;8.00;99.90
54192;DHT22;40101;53.002;6.488;2023-02-12T22:09:05;7.50;99.90
54192;DHT22;40101;53.002;6.488;2023-02-12T22:11:33;7.60;99.90
54192;DHT22;40101;53.002;6.488;2023-02-12T22:14:02;7.90;99.90
54192;DHT22;40101;53.002;6.488;2023-02-12T22:16:29;7.50;99.90
54192;DHT22;40101;53.002;6.488;2023-02-12T22:18:57;8.10;99.90
54192;DHT22;40101;53.002;6.488;2023-02-12T22:21:28;8.60;99.90
54192;DHT22;40101;53.002;6.488;2023-02-12T22:23:55;8.20;99.90
54192;DHT22;40101;53.002;6.488;2023-02-12T22:26:24;7.50;99.90
54192;DHT22;40101;53.002;6.488;2023-02-12T22:28:55;7.50;99.90
54192;DHT22;40101;53.002;6.488;2023-02-12T22:31:26;8.30;99.90
54192;DHT22;40101;53.002;6.488;2023-02-12T22:33:55;7.80;99.90
54192;DHT22;40101;53.002;6.488;2023-02-12T22:36:21;8.10;99.90
54192;DHT22;40101;53.002;6.488;2023-02-12T22:38:47;8.20;99.90
54192;DHT22;40101;53.002;6.488;2023-02-12T22:41:14;7.50;99.90
54192;DHT22;40101;53.002;6.488;2023-02-12T22:43:40;8.10;99.90
54192;DHT22;40101;53.002;6.488;2023-02-12T22:46:07;7.40;99.90
54192;DHT22;40101;53.002;6.488;2023-02-12T22:48:34;7.40;99.90
54192;DHT22;40101;53.002;6.488;2023-02-12T22:51:09;7.40;99.90
54192;DHT22;40101;53.002;6.488;2023-02-12T22:53:35;8.30;99.90
54192;DHT22;40101;53.002;6.488;2023-02-12T22:56:03;7.60;99.90
54192;DHT22;40101;53.002;6.488;2023-02-12T22:58:29;8.90;99.90
54192;DHT22;40101;53.002;6.488;2023-02-12T23:00:55;7.40;99.90
54192;DHT22;40101;53.002;6.488;2023-02-12T23:03:21;7.60;99.90
54192;DHT22;40101;53.002;6.488;2023-02-12T23:05:47;7.40;99.90
54192;DHT22;40101;53.002;6.488;2023-02-12T23:08:12;8.00;99.90
54192;DHT22;40101;53.002;6.488;2023-02-12T23:10:38;7.40;99.90
54192;DHT22;40101;53.002;6.488;2023-02-12T23:13:03;8.30;99.90
54192;DHT22;40101;53.002;6.488;2023-02-12T23:15:29;7.90;99.90
54192;DHT22;40101;53.002;6.488;2023-02-12T23:17:57;7.40;99.90
54192;DHT22;40101;53.002;6.488;2023-02-12T23:20:23;8.10;99.90
54192;DHT22;40101;53.002;6.488;2023-02-12T23:22:49;7.40;99.90
54192;DHT22;40101;53.002;6.488;2023-02-12T23:25:14;7.30;99.90
54192;DHT22;40101;53.002;6.488;2023-02-12T23:27:40;7.40;99.90
54192;DHT22;40101;53.002;6.488;2023-02-12T23:30:06;7.80;99.90
54192;DHT22;40101;53.002;6.488;2023-02-12T23:32:33;7.30;99.90
54192;DHT22;40101;53.002;6.488;2023-02-12T23:34:58;7.30;99.90
54192;DHT22;40101;53.002;6.488;2023-02-12T23:37:24;7.30;99.90
54192;DHT22;40101;53.002;6.488;2023-02-12T23:39:50;7.30;99.90
54192;DHT22;40101;53.002;6.488;2023-02-12T23:42:15;7.30;99.90
54192;DHT22;40101;53.002;6.488;2023-02-12T23:44:41;7.20;99.90
54192;DHT22;40101;53.002;6.488;2023-02-12T23:47:07;7.80;99.90
54192;DHT22;40101;53.002;6.488;2023-02-12T23:49:32;8.00;99.90
54192;DHT22;40101;53.002;6.488;2023-02-12T23:51:59;7.80;99.90
54192;DHT22;40101;53.002;6.488;2023-02-12T23:54:25;7.30;99.90
54192;DHT22;40101;53.002;6.488;2023-02-12T23:56:51;7.30;99.90
54192;DHT22;40101;53.002;6.488;2023-02-12T23:59:16;7.80;99.90
